BOX556 KMCO-EDDF
Flight info
| Callsign | BOX556 |
|---|---|
| Flight time | N/A |
| Altitude | 31000 |
| Route | FATHE4 VIYAP Q87 NOWAE DCT SHTGN Q22 FOXWD DCT MIILS/N0482F330 N739B LOMSI/M084F340 DCT 55N050W 56N040W 56N030W 55N020W DCT DOGAL DCT BEXET/N0483F350 DCT MORAG DCT NUCHU L607 KONAN UL607 SPI T180 NIVNU T847 IMCOM IMCOM1D |
| Aircraft | B77L/H-SDE1E2E3FGHIJ2J3J4J5M1RWXY/LB1D1 |
Departure
| Time | 2026-05-01 10:36 |
|---|---|
| Airport | Orlando International Airport (KMCO) |
Arrival
| Time | N/A |
|---|---|
| Airport | Frankfurt Main Airport (EDDF) |
| Time | Latitude | Longitude | Altitude | Speed | Heading |
|---|---|---|---|---|---|
| 2026-05-01 09:44 | 28.43701 | -81.33005 | 108 ft | 0 kts | 261° |
| 2026-05-01 10:24 | 28.43705 | -81.32981 | 107 ft | 2 kts | 261° |
| 2026-05-01 10:24 | 28.43710 | -81.32944 | 106 ft | 2 kts | 260° |
| 2026-05-01 10:25 | 28.43723 | -81.32932 | 106 ft | 2 kts | 359° |
| 2026-05-01 10:25 | 28.43726 | -81.32932 | 104 ft | 0 kts | 1° |
| 2026-05-01 10:30 | 28.43734 | -81.32932 | 106 ft | 2 kts | 0° |
| 2026-05-01 10:30 | 28.43799 | -81.32932 | 109 ft | 6 kts | 360° |
| 2026-05-01 10:31 | 28.43897 | -81.32932 | 106 ft | 8 kts | 359° |
| 2026-05-01 10:31 | 28.44035 | -81.32884 | 107 ft | 13 kts | 28° |
| 2026-05-01 10:32 | 28.44176 | -81.32862 | 107 ft | 10 kts | 359° |
| 2026-05-01 10:32 | 28.44243 | -81.32863 | 106 ft | 10 kts | 359° |
| 2026-05-01 10:32 | 28.44380 | -81.32865 | 110 ft | 10 kts | 0° |
| 2026-05-01 10:33 | 28.44515 | -81.32864 | 111 ft | 10 kts | 0° |
| 2026-05-01 10:33 | 28.44651 | -81.32864 | 111 ft | 10 kts | 357° |
| 2026-05-01 10:34 | 28.44720 | -81.32868 | 113 ft | 10 kts | 358° |
| 2026-05-01 10:34 | 28.44787 | -81.32866 | 113 ft | 10 kts | 9° |
| 2026-05-01 10:34 | 28.44817 | -81.32804 | 112 ft | 10 kts | 94° |
| 2026-05-01 10:35 | 28.44781 | -81.32692 | 112 ft | 2 kts | 184° |
| 2026-05-01 10:35 | 28.44770 | -81.32693 | 109 ft | 9 kts | 184° |
| 2026-05-01 10:35 | 28.44567 | -81.32697 | 109 ft | 54 kts | 178° |
| 2026-05-01 10:35 | 28.43951 | -81.32689 | 107 ft | 120 kts | 179° |
| 2026-05-01 10:36 | 28.41649 | -81.32657 | 425 ft | 181 kts | 180° |
| 2026-05-01 10:36 | 28.40373 | -81.32635 | 923 ft | 190 kts | 182° |
| 2026-05-01 10:36 | 28.39068 | -81.32921 | 1119 ft | 196 kts | 208° |
| 2026-05-01 10:37 | 28.37830 | -81.33564 | 1665 ft | 193 kts | 207° |
| 2026-05-01 10:37 | 28.35216 | -81.34902 | 2219 ft | 218 kts | 208° |
| 2026-05-01 10:37 | 28.33923 | -81.35846 | 2356 ft | 228 kts | 231° |
| 2026-05-01 10:38 | 28.32908 | -81.37290 | 2611 ft | 243 kts | 234° |
| 2026-05-01 10:38 | 28.31872 | -81.38839 | 3076 ft | 250 kts | 234° |
| 2026-05-01 10:38 | 28.30830 | -81.40444 | 3683 ft | 251 kts | 240° |
| 2026-05-01 10:38 | 28.30422 | -81.42367 | 4022 ft | 261 kts | 278° |
| 2026-05-01 10:39 | 28.31159 | -81.44239 | 4714 ft | 260 kts | 307° |
| 2026-05-01 10:39 | 28.32009 | -81.45218 | 4993 ft | 270 kts | 322° |
| 2026-05-01 10:39 | 28.34376 | -81.46217 | 5761 ft | 279 kts | 350° |
| 2026-05-01 10:39 | 28.36335 | -81.46157 | 6339 ft | 285 kts | 9° |
| 2026-05-01 10:40 | 28.38254 | -81.45547 | 6903 ft | 289 kts | 15° |
| 2026-05-01 10:40 | 28.40155 | -81.44803 | 7477 ft | 292 kts | 16° |
| 2026-05-01 10:40 | 28.41438 | -81.44290 | 7835 ft | 294 kts | 16° |
| 2026-05-01 10:40 | 28.43985 | -81.43291 | 8584 ft | 297 kts | 15° |
| 2026-05-01 10:41 | 28.45943 | -81.42545 | 9155 ft | 301 kts | 14° |
| 2026-05-01 10:41 | 28.47278 | -81.42046 | 9526 ft | 303 kts | 14° |
| 2026-05-01 10:41 | 28.51358 | -81.40554 | 10417 ft | 317 kts | 13° |
| 2026-05-01 10:42 | 28.54253 | -81.39517 | 10600 ft | 343 kts | 13° |
| 2026-05-01 10:42 | 28.55798 | -81.38966 | 10701 ft | 355 kts | 13° |
| 2026-05-01 10:42 | 28.58234 | -81.38096 | 10851 ft | 374 kts | 13° |
| 2026-05-01 10:42 | 28.60754 | -81.37195 | 11156 ft | 386 kts | 13° |
| 2026-05-01 10:43 | 28.63324 | -81.36274 | 11614 ft | 394 kts | 13° |
| 2026-05-01 10:43 | 28.65966 | -81.35325 | 12208 ft | 397 kts | 13° |
| 2026-05-01 10:43 | 28.68592 | -81.34382 | 12875 ft | 399 kts | 13° |
| 2026-05-01 10:43 | 28.71271 | -81.33422 | 13519 ft | 401 kts | 12° |
| 2026-05-01 10:44 | 28.73930 | -81.32468 | 14087 ft | 404 kts | 13° |
| 2026-05-01 10:44 | 28.76607 | -81.31483 | 14629 ft | 407 kts | 13° |
| 2026-05-01 10:44 | 28.79300 | -81.30508 | 15195 ft | 409 kts | 12° |
| 2026-05-01 10:44 | 28.82060 | -81.29629 | 15748 ft | 409 kts | 7° |
| 2026-05-01 10:45 | 28.84859 | -81.29173 | 16291 ft | 407 kts | 359° |
| 2026-05-01 10:45 | 28.87669 | -81.29078 | 16816 ft | 406 kts | 353° |
| 2026-05-01 10:45 | 28.90512 | -81.29319 | 17340 ft | 407 kts | 351° |
| 2026-05-01 10:45 | 28.93333 | -81.29603 | 17840 ft | 411 kts | 351° |
| 2026-05-01 10:46 | 28.96180 | -81.29870 | 18343 ft | 414 kts | 351° |
| 2026-05-01 10:46 | 28.99054 | -81.30121 | 18792 ft | 417 kts | 351° |
| 2026-05-01 10:46 | 29.01978 | -81.30415 | 19248 ft | 418 kts | 350° |
| 2026-05-01 10:46 | 29.04879 | -81.30748 | 19698 ft | 421 kts | 350° |
| 2026-05-01 10:47 | 29.07784 | -81.31083 | 20133 ft | 424 kts | 350° |
| 2026-05-01 10:47 | 29.10708 | -81.31413 | 20557 ft | 426 kts | 350° |
| 2026-05-01 10:47 | 29.13704 | -81.31680 | 21009 ft | 430 kts | 352° |
| 2026-05-01 10:47 | 29.16678 | -81.31860 | 21422 ft | 433 kts | 353° |
| 2026-05-01 10:48 | 29.19719 | -81.32015 | 21840 ft | 436 kts | 353° |
| 2026-05-01 10:48 | 29.22752 | -81.32168 | 22258 ft | 439 kts | 353° |
| 2026-05-01 10:48 | 29.25786 | -81.32329 | 22646 ft | 441 kts | 353° |
| 2026-05-01 10:48 | 29.28848 | -81.32502 | 23054 ft | 444 kts | 353° |
| 2026-05-01 10:49 | 29.31963 | -81.32684 | 23446 ft | 446 kts | 353° |
| 2026-05-01 10:49 | 29.35066 | -81.32870 | 23780 ft | 449 kts | 352° |
| 2026-05-01 10:49 | 29.38203 | -81.33060 | 24136 ft | 450 kts | 352° |
| 2026-05-01 10:49 | 29.41315 | -81.33248 | 24487 ft | 451 kts | 352° |
| 2026-05-01 10:50 | 29.44444 | -81.33437 | 24848 ft | 453 kts | 352° |
| 2026-05-01 10:50 | 29.47615 | -81.33629 | 25182 ft | 455 kts | 352° |
| 2026-05-01 10:50 | 29.50787 | -81.33820 | 25526 ft | 456 kts | 352° |
| 2026-05-01 10:50 | 29.53952 | -81.34011 | 25893 ft | 458 kts | 352° |
| 2026-05-01 10:51 | 29.57155 | -81.34205 | 26251 ft | 459 kts | 352° |
| 2026-05-01 10:51 | 29.60326 | -81.34396 | 26590 ft | 461 kts | 352° |
| 2026-05-01 10:51 | 29.63523 | -81.34590 | 26927 ft | 463 kts | 352° |
| 2026-05-01 10:51 | 29.66760 | -81.34783 | 27264 ft | 465 kts | 352° |
| 2026-05-01 10:52 | 29.69983 | -81.34968 | 27609 ft | 466 kts | 352° |
| 2026-05-01 10:52 | 29.73210 | -81.35152 | 27935 ft | 468 kts | 351° |
| 2026-05-01 10:52 | 29.76467 | -81.35337 | 28272 ft | 469 kts | 351° |
| 2026-05-01 10:52 | 29.79760 | -81.35524 | 28592 ft | 471 kts | 351° |
| 2026-05-01 10:53 | 29.83022 | -81.35710 | 28904 ft | 473 kts | 351° |
| 2026-05-01 10:53 | 29.86300 | -81.35898 | 29206 ft | 474 kts | 351° |
| 2026-05-01 10:53 | 29.89614 | -81.36088 | 29509 ft | 475 kts | 351° |
| 2026-05-01 10:53 | 29.92898 | -81.36277 | 29805 ft | 477 kts | 351° |
| 2026-05-01 10:54 | 29.96238 | -81.36469 | 30132 ft | 476 kts | 351° |
| 2026-05-01 10:54 | 29.99523 | -81.36656 | 30516 ft | 474 kts | 351° |
| 2026-05-01 10:54 | 30.02837 | -81.36845 | 30905 ft | 472 kts | 351° |
| 2026-05-01 10:55 | 30.09393 | -81.37226 | 30946 ft | 479 kts | 351° |
| 2026-05-01 10:55 | 30.16088 | -81.37616 | 30949 ft | 484 kts | 351° |
| 2026-05-01 10:56 | 30.22868 | -81.38008 | 30938 ft | 489 kts | 351° |
| 2026-05-01 10:56 | 30.28529 | -81.38334 | 30936 ft | 491 kts | 350° |
| 2026-05-01 10:57 | 30.36489 | -81.38794 | 30934 ft | 492 kts | 350° |
| 2026-05-01 10:57 | 30.43349 | -81.39192 | 30930 ft | 492 kts | 350° |
| 2026-05-01 10:58 | 30.50171 | -81.39577 | 30919 ft | 491 kts | 350° |
| 2026-05-01 10:58 | 30.56933 | -81.39934 | 30954 ft | 490 kts | 350° |
| 2026-05-01 10:59 | 30.63744 | -81.40292 | 30945 ft | 488 kts | 350° |
| 2026-05-01 10:59 | 30.70526 | -81.40653 | 30945 ft | 487 kts | 350° |
| 2026-05-01 11:00 | 30.77281 | -81.41016 | 30945 ft | 486 kts | 350° |
| 2026-05-01 11:00 | 30.84040 | -81.41379 | 30947 ft | 485 kts | 350° |
| 2026-05-01 11:01 | 30.90755 | -81.41740 | 30937 ft | 485 kts | 350° |
| 2026-05-01 11:01 | 30.97489 | -81.42103 | 30933 ft | 485 kts | 350° |
| 2026-05-01 11:02 | 31.04249 | -81.42467 | 30931 ft | 485 kts | 350° |
| 2026-05-01 11:02 | 31.10957 | -81.42830 | 30931 ft | 485 kts | 350° |
| 2026-05-01 11:03 | 31.17711 | -81.43195 | 30933 ft | 486 kts | 350° |
| 2026-05-01 11:03 | 31.24543 | -81.42765 | 30951 ft | 501 kts | 2° |
| 2026-05-01 11:04 | 31.31287 | -81.40490 | 30941 ft | 517 kts | 15° |
| 2026-05-01 11:04 | 31.37851 | -81.36889 | 30939 ft | 521 kts | 18° |
| 2026-05-01 11:05 | 31.44370 | -81.33220 | 30944 ft | 520 kts | 17° |
| 2026-05-01 11:05 | 31.50920 | -81.29622 | 30946 ft | 520 kts | 17° |
| 2026-05-01 11:06 | 31.57457 | -81.26068 | 30940 ft | 520 kts | 17° |
| 2026-05-01 11:06 | 31.64040 | -81.22477 | 30934 ft | 520 kts | 17° |
| 2026-05-01 11:07 | 31.73845 | -81.17113 | 30920 ft | 519 kts | 17° |
| 2026-05-01 11:07 | 31.80392 | -81.13527 | 30921 ft | 519 kts | 17° |
| 2026-05-01 11:08 | 31.86957 | -81.09924 | 30910 ft | 519 kts | 17° |
| 2026-05-01 11:09 | 31.96747 | -81.04539 | 30912 ft | 520 kts | 17° |
| 2026-05-01 11:09 | 32.03319 | -81.00908 | 30908 ft | 521 kts | 17° |
| 2026-05-01 11:10 | 32.13129 | -80.95415 | 30921 ft | 522 kts | 17° |
| 2026-05-01 11:10 | 32.19706 | -80.91721 | 30951 ft | 523 kts | 17° |
| 2026-05-01 11:11 | 32.26265 | -80.88038 | 30958 ft | 523 kts | 17° |
| 2026-05-01 11:11 | 32.32833 | -80.84344 | 30956 ft | 523 kts | 17° |
| 2026-05-01 11:12 | 32.39415 | -80.80636 | 30964 ft | 523 kts | 17° |
| 2026-05-01 11:12 | 32.45978 | -80.76933 | 30966 ft | 522 kts | 17° |
| 2026-05-01 11:13 | 32.52519 | -80.73236 | 30965 ft | 521 kts | 18° |
| 2026-05-01 11:13 | 32.59078 | -80.69524 | 30963 ft | 522 kts | 18° |
| 2026-05-01 11:14 | 32.65625 | -80.65812 | 30957 ft | 523 kts | 18° |
| 2026-05-01 11:14 | 32.72209 | -80.62069 | 30975 ft | 525 kts | 18° |
| 2026-05-01 11:15 | 32.78742 | -80.58230 | 30982 ft | 528 kts | 19° |
| 2026-05-01 11:15 | 32.85337 | -80.54286 | 30989 ft | 531 kts | 19° |
| 2026-05-01 11:16 | 32.91923 | -80.50352 | 30979 ft | 534 kts | 19° |
| 2026-05-01 11:16 | 32.98594 | -80.46378 | 30981 ft | 537 kts | 19° |
| 2026-05-01 11:17 | 33.05281 | -80.42392 | 30978 ft | 540 kts | 19° |
| 2026-05-01 11:17 | 33.12017 | -80.38368 | 30979 ft | 543 kts | 19° |
| 2026-05-01 11:18 | 33.18795 | -80.34310 | 30978 ft | 545 kts | 19° |
| 2026-05-01 11:18 | 33.25573 | -80.30245 | 30975 ft | 546 kts | 19° |
| 2026-05-01 11:19 | 33.32366 | -80.26163 | 31003 ft | 546 kts | 17° |
| 2026-05-01 11:19 | 33.39116 | -80.22095 | 30995 ft | 540 kts | 17° |
| 2026-05-01 11:20 | 33.45793 | -80.18073 | 31009 ft | 539 kts | 17° |
| 2026-05-01 11:20 | 33.52503 | -80.14025 | 31018 ft | 539 kts | 17° |
| 2026-05-01 11:21 | 33.59220 | -80.09962 | 31017 ft | 540 kts | 16° |
| 2026-05-01 11:21 | 33.65902 | -80.05914 | 31008 ft | 541 kts | 16° |
| 2026-05-01 11:22 | 33.72627 | -80.01833 | 31027 ft | 542 kts | 16° |
| 2026-05-01 11:22 | 33.79370 | -79.97732 | 31021 ft | 543 kts | 16° |
| 2026-05-01 11:23 | 33.86070 | -79.93649 | 31021 ft | 543 kts | 16° |
| 2026-05-01 11:23 | 33.92844 | -79.89513 | 31012 ft | 544 kts | 16° |
| 2026-05-01 11:24 | 33.99563 | -79.85403 | 31020 ft | 544 kts | 16° |
| 2026-05-01 11:25 | 34.09695 | -79.79191 | 31031 ft | 545 kts | 16° |
| 2026-05-01 11:25 | 34.19817 | -79.72968 | 31037 ft | 545 kts | 16° |
| 2026-05-01 11:26 | 34.29930 | -79.66716 | 31037 ft | 545 kts | 16° |
| 2026-05-01 11:27 | 34.36690 | -79.62528 | 31032 ft | 546 kts | 16° |
| 2026-05-01 11:27 | 34.43454 | -79.58336 | 31041 ft | 546 kts | 16° |
| 2026-05-01 11:28 | 34.50238 | -79.54126 | 31045 ft | 546 kts | 16° |
| 2026-05-01 11:28 | 34.56969 | -79.49917 | 31041 ft | 548 kts | 18° |
| 2026-05-01 11:29 | 34.66989 | -79.43098 | 31048 ft | 550 kts | 19° |
| 2026-05-01 11:30 | 34.76997 | -79.36338 | 31057 ft | 550 kts | 18° |
| 2026-05-01 11:30 | 34.83698 | -79.31802 | 31058 ft | 550 kts | 18° |
| 2026-05-01 11:31 | 34.90377 | -79.27268 | 31054 ft | 550 kts | 18° |
| 2026-05-01 11:31 | 34.97009 | -79.22755 | 31053 ft | 550 kts | 18° |
| 2026-05-01 11:32 | 35.03703 | -79.18193 | 31058 ft | 550 kts | 18° |
| 2026-05-01 11:32 | 35.10383 | -79.13632 | 31055 ft | 550 kts | 18° |
| 2026-05-01 11:33 | 35.17065 | -79.09061 | 31057 ft | 550 kts | 18° |
| 2026-05-01 11:33 | 35.23712 | -79.04505 | 31062 ft | 550 kts | 18° |
| 2026-05-01 11:34 | 35.30389 | -78.99919 | 31058 ft | 550 kts | 18° |
| 2026-05-01 11:34 | 35.37078 | -78.95315 | 31078 ft | 550 kts | 18° |
| 2026-05-01 11:35 | 35.43754 | -78.90714 | 31086 ft | 551 kts | 18° |
| 2026-05-01 11:35 | 35.50430 | -78.86097 | 31077 ft | 551 kts | 18° |
| 2026-05-01 11:36 | 35.57059 | -78.81499 | 31077 ft | 551 kts | 18° |
| 2026-05-01 11:36 | 35.63742 | -78.76862 | 31065 ft | 551 kts | 18° |
| 2026-05-01 11:37 | 35.70430 | -78.72227 | 31066 ft | 551 kts | 18° |
| 2026-05-01 11:37 | 35.77125 | -78.67581 | 31065 ft | 552 kts | 18° |
| 2026-05-01 11:38 | 35.82669 | -78.63723 | 31064 ft | 552 kts | 18° |
| 2026-05-01 11:38 | 35.89370 | -78.59051 | 31073 ft | 552 kts | 18° |
| 2026-05-01 11:39 | 35.96041 | -78.54389 | 31088 ft | 553 kts | 18° |
| 2026-05-01 11:39 | 36.03830 | -78.48935 | 31102 ft | 553 kts | 18° |
| 2026-05-01 11:40 | 36.09433 | -78.45005 | 31105 ft | 553 kts | 18° |
| 2026-05-01 11:40 | 36.16085 | -78.40331 | 31091 ft | 554 kts | 18° |
| 2026-05-01 11:41 | 36.22805 | -78.35598 | 31085 ft | 554 kts | 17° |
| 2026-05-01 11:41 | 36.29478 | -78.30889 | 31090 ft | 555 kts | 17° |
| 2026-05-01 11:42 | 36.36211 | -78.26127 | 31084 ft | 555 kts | 17° |
| 2026-05-01 11:42 | 36.42857 | -78.21249 | 31082 ft | 560 kts | 20° |
| 2026-05-01 11:43 | 36.49467 | -78.16010 | 31117 ft | 563 kts | 21° |
| 2026-05-01 11:43 | 36.56028 | -78.10759 | 31143 ft | 563 kts | 20° |
| 2026-05-01 11:44 | 36.65945 | -78.02928 | 31144 ft | 564 kts | 20° |
| 2026-05-01 11:44 | 36.72587 | -77.97704 | 31152 ft | 565 kts | 20° |
| 2026-05-01 11:45 | 36.79217 | -77.92475 | 31099 ft | 566 kts | 20° |
| 2026-05-01 11:45 | 36.85869 | -77.87211 | 31095 ft | 567 kts | 20° |
| 2026-05-01 11:46 | 36.92529 | -77.81927 | 31087 ft | 567 kts | 20° |
| 2026-05-01 11:46 | 36.99210 | -77.76615 | 31076 ft | 568 kts | 20° |
| 2026-05-01 11:47 | 37.05863 | -77.71316 | 31081 ft | 568 kts | 20° |
| 2026-05-01 11:47 | 37.12547 | -77.65981 | 31106 ft | 568 kts | 20° |
| 2026-05-01 11:48 | 37.19189 | -77.60668 | 31103 ft | 568 kts | 20° |
| 2026-05-01 11:48 | 37.25867 | -77.55314 | 31103 ft | 568 kts | 20° |
| 2026-05-01 11:49 | 37.32496 | -77.49988 | 31092 ft | 568 kts | 20° |
| 2026-05-01 11:49 | 37.39142 | -77.44638 | 31089 ft | 567 kts | 20° |
| 2026-05-01 11:50 | 37.45784 | -77.39281 | 31078 ft | 567 kts | 20° |
| 2026-05-01 11:50 | 37.52430 | -77.33908 | 31079 ft | 566 kts | 20° |
| 2026-05-01 11:51 | 37.59056 | -77.28540 | 31086 ft | 567 kts | 20° |
| 2026-05-01 11:51 | 37.65683 | -77.23160 | 31092 ft | 567 kts | 20° |
| 2026-05-01 11:52 | 37.72304 | -77.17773 | 31093 ft | 567 kts | 20° |
| 2026-05-01 11:52 | 37.78943 | -77.12359 | 31097 ft | 567 kts | 20° |
| 2026-05-01 11:53 | 37.85559 | -77.06952 | 31102 ft | 567 kts | 21° |
| 2026-05-01 11:53 | 37.92159 | -77.01546 | 31093 ft | 567 kts | 21° |
| 2026-05-01 11:54 | 37.98787 | -76.96106 | 31098 ft | 567 kts | 21° |
| 2026-05-01 11:54 | 38.05417 | -76.90651 | 31098 ft | 567 kts | 21° |
| 2026-05-01 11:55 | 38.12031 | -76.85198 | 31092 ft | 567 kts | 21° |
| 2026-05-01 11:55 | 38.18637 | -76.79740 | 31075 ft | 567 kts | 21° |
| 2026-05-01 11:56 | 38.25225 | -76.74163 | 31070 ft | 573 kts | 25° |
| 2026-05-01 11:56 | 38.31420 | -76.67587 | 31062 ft | 583 kts | 31° |
| 2026-05-01 11:57 | 38.37471 | -76.60839 | 31073 ft | 582 kts | 30° |
| 2026-05-01 11:57 | 38.43638 | -76.54132 | 31073 ft | 581 kts | 30° |
| 2026-05-01 11:58 | 38.49832 | -76.47493 | 31076 ft | 580 kts | 30° |
| 2026-05-01 11:59 | 38.59052 | -76.37607 | 31071 ft | 580 kts | 30° |
| 2026-05-01 11:59 | 38.65222 | -76.30951 | 31062 ft | 580 kts | 30° |
| 2026-05-01 12:00 | 38.74471 | -76.20939 | 31070 ft | 579 kts | 30° |
| 2026-05-01 12:01 | 38.83673 | -76.10946 | 31075 ft | 579 kts | 30° |
| 2026-05-01 12:01 | 38.89821 | -76.04249 | 31077 ft | 578 kts | 31° |
| 2026-05-01 12:02 | 38.95933 | -75.97577 | 31075 ft | 577 kts | 31° |
| 2026-05-01 12:02 | 39.01905 | -75.90701 | 31061 ft | 580 kts | 34° |
| 2026-05-01 12:03 | 39.07787 | -75.83567 | 31048 ft | 579 kts | 34° |
| 2026-05-01 12:03 | 39.13658 | -75.76492 | 31045 ft | 576 kts | 34° |
| 2026-05-01 12:04 | 39.19518 | -75.69498 | 31041 ft | 574 kts | 34° |
| 2026-05-01 12:04 | 39.25342 | -75.62534 | 31021 ft | 573 kts | 34° |
| 2026-05-01 12:05 | 39.31189 | -75.55515 | 31045 ft | 572 kts | 34° |
| 2026-05-01 12:05 | 39.39861 | -75.45027 | 31049 ft | 570 kts | 35° |
| 2026-05-01 12:06 | 39.45653 | -75.37993 | 31049 ft | 570 kts | 35° |
| 2026-05-01 12:06 | 39.51426 | -75.30970 | 31050 ft | 569 kts | 36° |
| 2026-05-01 12:07 | 39.57206 | -75.23921 | 31041 ft | 569 kts | 36° |
| 2026-05-01 12:07 | 39.62925 | -75.16930 | 31045 ft | 568 kts | 36° |
| 2026-05-01 12:08 | 39.68698 | -75.09870 | 31044 ft | 566 kts | 35° |
| 2026-05-01 12:08 | 39.74637 | -75.03276 | 31049 ft | 562 kts | 32° |
| 2026-05-01 12:09 | 39.80605 | -74.96706 | 31043 ft | 563 kts | 34° |
| 2026-05-01 12:09 | 39.86473 | -74.90003 | 31042 ft | 563 kts | 34° |
| 2026-05-01 12:10 | 39.95660 | -74.80730 | 31030 ft | 552 kts | 27° |
| 2026-05-01 12:11 | 40.04909 | -74.71662 | 31032 ft | 561 kts | 37° |
| 2026-05-01 12:11 | 40.10197 | -74.64134 | 31033 ft | 567 kts | 43° |
| 2026-05-01 12:12 | 40.15422 | -74.56388 | 31034 ft | 566 kts | 42° |
| 2026-05-01 12:12 | 40.20748 | -74.48938 | 31028 ft | 562 kts | 38° |
| 2026-05-01 12:13 | 40.26694 | -74.42394 | 31032 ft | 555 kts | 32° |
| 2026-05-01 12:13 | 40.32743 | -74.36087 | 31022 ft | 556 kts | 32° |
| 2026-05-01 12:14 | 40.38745 | -74.29717 | 31034 ft | 556 kts | 33° |
| 2026-05-01 12:14 | 40.44707 | -74.23308 | 31011 ft | 556 kts | 33° |
| 2026-05-01 12:15 | 40.50709 | -74.16842 | 31010 ft | 555 kts | 33° |
| 2026-05-01 12:15 | 40.56653 | -74.10436 | 31013 ft | 555 kts | 33° |
| 2026-05-01 12:16 | 40.62610 | -74.04011 | 31022 ft | 554 kts | 33° |
| 2026-05-01 12:16 | 40.68587 | -73.97551 | 31023 ft | 554 kts | 34° |
| 2026-05-01 12:17 | 40.74554 | -73.91082 | 31000 ft | 554 kts | 34° |
| 2026-05-01 12:17 | 40.80474 | -73.84648 | 31004 ft | 554 kts | 34° |
| 2026-05-01 12:18 | 40.86213 | -73.77770 | 31003 ft | 559 kts | 42° |
| 2026-05-01 12:18 | 40.91071 | -73.69652 | 30985 ft | 565 kts | 51° |
| 2026-05-01 12:19 | 40.95474 | -73.61133 | 30990 ft | 565 kts | 52° |
| 2026-05-01 12:19 | 40.99915 | -73.52568 | 30979 ft | 564 kts | 52° |
| 2026-05-01 12:20 | 41.04402 | -73.44028 | 30979 ft | 564 kts | 51° |
| 2026-05-01 12:20 | 41.08901 | -73.35480 | 30982 ft | 564 kts | 52° |
| 2026-05-01 12:21 | 41.13363 | -73.26968 | 30980 ft | 564 kts | 52° |
| 2026-05-01 12:21 | 41.17837 | -73.18397 | 30988 ft | 564 kts | 52° |
| 2026-05-01 12:22 | 41.22276 | -73.09871 | 30972 ft | 564 kts | 52° |
| 2026-05-01 12:22 | 41.26731 | -73.01290 | 30964 ft | 563 kts | 52° |
| 2026-05-01 12:23 | 41.31040 | -72.92573 | 30967 ft | 564 kts | 56° |
| 2026-05-01 12:23 | 41.35055 | -72.83599 | 30967 ft | 565 kts | 57° |
| 2026-05-01 12:24 | 41.39016 | -72.74616 | 30957 ft | 564 kts | 57° |
| 2026-05-01 12:24 | 41.43019 | -72.65610 | 30974 ft | 564 kts | 57° |
| 2026-05-01 12:25 | 41.49019 | -72.52148 | 30948 ft | 563 kts | 57° |
| 2026-05-01 12:26 | 41.52997 | -72.43188 | 30950 ft | 562 kts | 57° |
| 2026-05-01 12:26 | 41.58955 | -72.29705 | 30943 ft | 562 kts | 58° |
| 2026-05-01 12:27 | 41.64892 | -72.16208 | 30946 ft | 561 kts | 58° |
| 2026-05-01 12:28 | 41.70807 | -72.02701 | 30942 ft | 561 kts | 58° |
| 2026-05-01 12:29 | 41.76724 | -71.89131 | 30936 ft | 561 kts | 58° |
| 2026-05-01 12:29 | 41.84198 | -71.77311 | 30929 ft | 554 kts | 37° |
| 2026-05-01 12:30 | 41.93757 | -71.68840 | 30927 ft | 549 kts | 28° |
| 2026-05-01 12:31 | 42.00279 | -71.63447 | 30926 ft | 550 kts | 29° |
| 2026-05-01 12:31 | 42.06719 | -71.58015 | 30925 ft | 550 kts | 30° |
| 2026-05-01 12:32 | 42.13201 | -71.52474 | 30923 ft | 550 kts | 30° |
| 2026-05-01 12:32 | 42.21800 | -71.45086 | 30918 ft | 551 kts | 30° |
| 2026-05-01 12:33 | 42.28279 | -71.39512 | 30919 ft | 551 kts | 30° |
| 2026-05-01 12:33 | 42.34715 | -71.33966 | 30913 ft | 551 kts | 30° |
| 2026-05-01 12:34 | 42.41175 | -71.28386 | 30910 ft | 551 kts | 31° |
| 2026-05-01 12:34 | 42.47633 | -71.22794 | 30907 ft | 551 kts | 31° |
| 2026-05-01 12:35 | 42.54104 | -71.17176 | 30907 ft | 552 kts | 31° |
| 2026-05-01 12:35 | 42.60532 | -71.11581 | 30905 ft | 552 kts | 31° |
| 2026-05-01 12:36 | 42.66993 | -71.05943 | 30910 ft | 552 kts | 31° |
| 2026-05-01 12:36 | 42.73466 | -71.00280 | 30906 ft | 553 kts | 32° |
| 2026-05-01 12:37 | 42.79937 | -70.94606 | 30904 ft | 553 kts | 32° |
| 2026-05-01 12:37 | 42.86373 | -70.88948 | 30892 ft | 553 kts | 32° |
| 2026-05-01 12:38 | 42.92856 | -70.83235 | 30862 ft | 554 kts | 32° |
| 2026-05-01 12:38 | 42.99315 | -70.77527 | 30863 ft | 554 kts | 32° |
| 2026-05-01 12:39 | 43.05767 | -70.71811 | 30861 ft | 554 kts | 33° |
| 2026-05-01 12:39 | 43.12249 | -70.66054 | 30864 ft | 555 kts | 33° |
| 2026-05-01 12:40 | 43.18721 | -70.60291 | 30877 ft | 556 kts | 33° |
| 2026-05-01 12:40 | 43.21948 | -70.57413 | 31023 ft | 557 kts | 33° |
| 2026-05-01 12:40 | 43.25187 | -70.54518 | 31286 ft | 556 kts | 33° |
| 2026-05-01 12:41 | 43.28447 | -70.51603 | 31551 ft | 554 kts | 33° |
| 2026-05-01 12:41 | 43.31662 | -70.48723 | 31798 ft | 553 kts | 33° |
| 2026-05-01 12:41 | 43.34896 | -70.45823 | 32027 ft | 553 kts | 33° |
| 2026-05-01 12:41 | 43.38101 | -70.42945 | 32233 ft | 553 kts | 33° |
| 2026-05-01 12:42 | 43.41303 | -70.40067 | 32491 ft | 552 kts | 33° |
| 2026-05-01 12:42 | 43.44534 | -70.37158 | 32786 ft | 549 kts | 33° |
| 2026-05-01 12:42 | 43.50898 | -70.31418 | 32850 ft | 548 kts | 33° |
| 2026-05-01 12:43 | 43.57260 | -70.25666 | 32863 ft | 545 kts | 33° |
| 2026-05-01 12:43 | 43.63601 | -70.19917 | 32859 ft | 544 kts | 33° |
| 2026-05-01 12:44 | 43.69901 | -70.14191 | 32860 ft | 543 kts | 33° |
| 2026-05-01 12:45 | 43.82489 | -70.02704 | 32872 ft | 543 kts | 34° |
| 2026-05-01 12:45 | 43.88814 | -69.96911 | 32872 ft | 543 kts | 34° |
| 2026-05-01 12:46 | 43.95103 | -69.91136 | 32870 ft | 544 kts | 34° |
| 2026-05-01 12:46 | 44.01385 | -69.85352 | 32850 ft | 545 kts | 34° |
| 2026-05-01 12:47 | 44.07740 | -69.79487 | 32852 ft | 545 kts | 35° |
| 2026-05-01 12:47 | 44.14008 | -69.73686 | 32844 ft | 545 kts | 35° |
| 2026-05-01 12:48 | 44.20318 | -69.67831 | 32829 ft | 545 kts | 35° |
| 2026-05-01 12:48 | 44.26631 | -69.61957 | 32828 ft | 545 kts | 35° |
| 2026-05-01 12:49 | 44.32946 | -69.56067 | 32829 ft | 545 kts | 36° |
| 2026-05-01 12:49 | 44.39231 | -69.50189 | 32813 ft | 545 kts | 36° |
| 2026-05-01 12:50 | 44.45511 | -69.44301 | 32819 ft | 545 kts | 36° |
| 2026-05-01 12:50 | 44.51816 | -69.38373 | 32807 ft | 545 kts | 36° |
| 2026-05-01 12:51 | 44.58118 | -69.32432 | 32810 ft | 545 kts | 36° |
| 2026-05-01 12:52 | 44.67534 | -69.23528 | 32792 ft | 545 kts | 36° |
| 2026-05-01 12:52 | 44.76953 | -69.14583 | 32805 ft | 545 kts | 37° |
| 2026-05-01 12:53 | 44.86262 | -69.05708 | 32810 ft | 545 kts | 37° |
| 2026-05-01 12:54 | 44.92548 | -68.99695 | 32808 ft | 545 kts | 37° |
| 2026-05-01 12:54 | 45.01943 | -68.90678 | 32800 ft | 545 kts | 37° |
| 2026-05-01 12:55 | 45.11332 | -68.81631 | 32789 ft | 545 kts | 37° |
| 2026-05-01 12:56 | 45.17597 | -68.75574 | 32780 ft | 545 kts | 37° |
| 2026-05-01 12:56 | 45.23840 | -68.69521 | 32781 ft | 545 kts | 38° |
| 2026-05-01 12:57 | 45.30062 | -68.63472 | 32776 ft | 545 kts | 38° |
| 2026-05-01 12:57 | 45.39447 | -68.54318 | 32774 ft | 545 kts | 38° |
| 2026-05-01 12:58 | 45.45662 | -68.48234 | 32778 ft | 544 kts | 38° |
| 2026-05-01 12:59 | 45.55041 | -68.39024 | 32776 ft | 544 kts | 38° |
| 2026-05-01 12:59 | 45.64352 | -68.29841 | 32766 ft | 544 kts | 38° |
| 2026-05-01 13:00 | 45.73684 | -68.20599 | 32762 ft | 544 kts | 38° |
| 2026-05-01 13:01 | 45.83003 | -68.11333 | 32749 ft | 543 kts | 38° |
| 2026-05-01 13:02 | 45.92310 | -68.02040 | 32735 ft | 543 kts | 39° |
| 2026-05-01 13:07 | 46.60217 | -67.33037 | 32729 ft | 544 kts | 40° |
| 2026-05-01 13:08 | 46.66397 | -67.26649 | 32732 ft | 544 kts | 40° |
| 2026-05-01 13:08 | 46.72526 | -67.20296 | 32740 ft | 544 kts | 40° |
| 2026-05-01 13:09 | 46.78710 | -67.13867 | 32750 ft | 545 kts | 40° |
| 2026-05-01 13:09 | 46.84893 | -67.07423 | 32743 ft | 546 kts | 40° |
| 2026-05-01 13:10 | 46.90731 | -67.00535 | 32761 ft | 539 kts | 48° |
| 2026-05-01 13:10 | 46.96228 | -66.92994 | 32759 ft | 540 kts | 50° |
| 2026-05-01 13:11 | 47.01655 | -66.85453 | 32760 ft | 540 kts | 49° |
| 2026-05-01 13:11 | 47.07150 | -66.77875 | 32757 ft | 542 kts | 49° |
| 2026-05-01 13:12 | 47.12661 | -66.70312 | 32755 ft | 542 kts | 49° |
| 2026-05-01 13:12 | 47.18154 | -66.62766 | 32774 ft | 543 kts | 49° |
| 2026-05-01 13:13 | 47.23667 | -66.55166 | 32771 ft | 542 kts | 49° |
| 2026-05-01 13:13 | 47.29125 | -66.47612 | 32777 ft | 541 kts | 49° |
| 2026-05-01 13:14 | 47.34602 | -66.40007 | 32791 ft | 541 kts | 49° |
| 2026-05-01 13:14 | 47.40079 | -66.32377 | 32801 ft | 541 kts | 50° |
| 2026-05-01 13:15 | 47.45557 | -66.24724 | 32799 ft | 541 kts | 50° |
| 2026-05-01 13:15 | 47.50993 | -66.17109 | 32813 ft | 540 kts | 50° |
| 2026-05-01 13:16 | 47.54630 | -66.12002 | 32818 ft | 541 kts | 50° |
| 2026-05-01 13:16 | 47.61887 | -66.01777 | 32817 ft | 541 kts | 50° |
| 2026-05-01 13:17 | 47.72804 | -65.86319 | 32817 ft | 542 kts | 50° |
| 2026-05-01 13:18 | 47.80977 | -65.74685 | 32829 ft | 543 kts | 50° |
| 2026-05-01 13:18 | 47.86405 | -65.66929 | 32831 ft | 544 kts | 50° |
| 2026-05-01 13:19 | 47.91866 | -65.59101 | 32856 ft | 545 kts | 50° |
| 2026-05-01 13:20 | 48.00034 | -65.47347 | 32856 ft | 546 kts | 50° |
| 2026-05-01 13:20 | 48.05505 | -65.39445 | 32866 ft | 547 kts | 50° |
| 2026-05-01 13:21 | 48.12806 | -65.28861 | 32881 ft | 548 kts | 49° |
| 2026-05-01 13:21 | 48.19190 | -65.19570 | 32879 ft | 549 kts | 49° |
| 2026-05-01 13:22 | 48.24642 | -65.11608 | 32889 ft | 550 kts | 49° |
| 2026-05-01 13:22 | 48.29237 | -65.04878 | 32889 ft | 550 kts | 49° |
| 2026-05-01 13:23 | 48.35593 | -64.95542 | 32891 ft | 551 kts | 49° |
| 2026-05-01 13:23 | 48.41058 | -64.87485 | 32918 ft | 551 kts | 49° |
| 2026-05-01 13:24 | 48.46530 | -64.79393 | 32940 ft | 552 kts | 49° |
| 2026-05-01 13:25 | 48.54733 | -64.67208 | 32951 ft | 553 kts | 49° |
| 2026-05-01 13:25 | 48.59332 | -64.60356 | 32954 ft | 553 kts | 48° |
| 2026-05-01 13:26 | 48.65698 | -64.50839 | 32958 ft | 554 kts | 48° |
| 2026-05-01 13:26 | 48.71170 | -64.42628 | 32963 ft | 554 kts | 48° |
| 2026-05-01 13:27 | 48.76613 | -64.34434 | 32955 ft | 553 kts | 48° |
| 2026-05-01 13:27 | 48.83872 | -64.23464 | 32956 ft | 553 kts | 48° |
| 2026-05-01 13:28 | 48.92926 | -64.09716 | 32950 ft | 552 kts | 47° |
| 2026-05-01 13:29 | 49.02847 | -63.94567 | 32965 ft | 550 kts | 47° |
| 2026-05-01 13:31 | 49.18961 | -63.69762 | 32984 ft | 548 kts | 47° |
| 2026-05-01 13:32 | 49.32353 | -63.48962 | 33001 ft | 547 kts | 47° |
| 2026-05-01 13:33 | 49.45620 | -63.28185 | 33025 ft | 543 kts | 47° |
| 2026-05-01 13:34 | 49.56112 | -63.11634 | 33035 ft | 537 kts | 47° |
| 2026-05-01 13:35 | 49.63859 | -62.99344 | 33046 ft | 533 kts | 47° |
| 2026-05-01 13:36 | 49.71577 | -62.87037 | 33064 ft | 530 kts | 46° |
| 2026-05-01 13:36 | 49.79238 | -62.74764 | 33072 ft | 529 kts | 46° |
| 2026-05-01 13:37 | 49.84364 | -62.66518 | 33078 ft | 529 kts | 47° |
| 2026-05-01 13:37 | 49.89431 | -62.58341 | 33084 ft | 529 kts | 47° |
| 2026-05-01 13:38 | 49.97057 | -62.45983 | 33095 ft | 528 kts | 47° |
| 2026-05-01 13:39 | 50.02139 | -62.37714 | 33106 ft | 527 kts | 47° |
| 2026-05-01 13:39 | 50.07175 | -62.29495 | 33114 ft | 527 kts | 47° |
| 2026-05-01 13:40 | 50.12213 | -62.21244 | 33131 ft | 526 kts | 47° |
| 2026-05-01 13:40 | 50.17237 | -62.12989 | 33143 ft | 525 kts | 47° |
| 2026-05-01 13:41 | 50.22265 | -62.04702 | 33151 ft | 524 kts | 47° |
| 2026-05-01 13:41 | 50.27241 | -61.96471 | 33156 ft | 523 kts | 47° |
| 2026-05-01 13:42 | 50.32224 | -61.88203 | 33153 ft | 523 kts | 47° |
| 2026-05-01 13:42 | 50.37208 | -61.79907 | 33159 ft | 522 kts | 48° |
| 2026-05-01 13:43 | 50.42180 | -61.71603 | 33156 ft | 522 kts | 48° |
| 2026-05-01 13:43 | 50.47144 | -61.63284 | 33164 ft | 522 kts | 48° |
| 2026-05-01 13:44 | 50.52074 | -61.54995 | 33173 ft | 522 kts | 48° |
| 2026-05-01 13:44 | 50.57036 | -61.46626 | 33163 ft | 522 kts | 49° |
| 2026-05-01 13:45 | 50.61949 | -61.38314 | 33174 ft | 522 kts | 49° |
| 2026-05-01 13:45 | 50.66886 | -61.29931 | 33169 ft | 521 kts | 49° |
| 2026-05-01 13:46 | 50.71826 | -61.21516 | 33182 ft | 521 kts | 49° |
| 2026-05-01 13:46 | 50.76721 | -61.13148 | 33179 ft | 521 kts | 49° |
| 2026-05-01 13:47 | 50.81639 | -61.04712 | 33180 ft | 521 kts | 49° |
| 2026-05-01 13:47 | 50.86558 | -60.96251 | 33199 ft | 521 kts | 49° |
| 2026-05-01 13:48 | 50.91442 | -60.87819 | 33198 ft | 521 kts | 49° |
| 2026-05-01 13:48 | 50.96343 | -60.79330 | 33203 ft | 521 kts | 49° |
| 2026-05-01 13:49 | 51.01235 | -60.70828 | 33203 ft | 521 kts | 50° |
| 2026-05-01 13:49 | 51.06113 | -60.62321 | 33187 ft | 521 kts | 50° |
| 2026-05-01 13:50 | 51.10971 | -60.53818 | 33207 ft | 521 kts | 50° |
| 2026-05-01 13:50 | 51.15839 | -60.45272 | 33205 ft | 521 kts | 50° |
| 2026-05-01 13:51 | 51.19891 | -60.38136 | 33215 ft | 521 kts | 50° |
| 2026-05-01 13:51 | 51.25559 | -60.28118 | 33214 ft | 522 kts | 50° |
| 2026-05-01 13:52 | 51.30404 | -60.19528 | 33217 ft | 522 kts | 50° |
| 2026-05-01 13:52 | 51.35268 | -60.10870 | 33221 ft | 522 kts | 50° |
| 2026-05-01 13:53 | 51.40086 | -60.02263 | 33223 ft | 522 kts | 50° |
| 2026-05-01 13:53 | 51.47350 | -59.89232 | 33232 ft | 523 kts | 50° |
| 2026-05-01 13:54 | 51.52206 | -59.80487 | 33232 ft | 524 kts | 50° |
| 2026-05-01 13:54 | 51.57035 | -59.71761 | 33232 ft | 524 kts | 50° |
| 2026-05-01 13:55 | 51.61872 | -59.62984 | 33234 ft | 525 kts | 50° |
| 2026-05-01 13:55 | 51.66712 | -59.54175 | 33237 ft | 525 kts | 50° |
| 2026-05-01 13:56 | 51.71557 | -59.45325 | 33241 ft | 526 kts | 50° |
| 2026-05-01 13:56 | 51.76368 | -59.36505 | 33234 ft | 526 kts | 49° |
| 2026-05-01 13:57 | 51.80383 | -59.29122 | 33238 ft | 527 kts | 49° |
| 2026-05-01 13:57 | 51.86038 | -59.18686 | 33234 ft | 527 kts | 49° |
| 2026-05-01 13:58 | 51.90842 | -59.09787 | 33242 ft | 528 kts | 49° |
| 2026-05-01 13:58 | 51.95672 | -59.00808 | 33236 ft | 528 kts | 49° |
| 2026-05-01 13:59 | 52.00480 | -58.91835 | 33240 ft | 529 kts | 49° |
| 2026-05-01 13:59 | 52.05317 | -58.82778 | 33241 ft | 529 kts | 49° |
| 2026-05-01 14:00 | 52.10135 | -58.73726 | 33240 ft | 530 kts | 49° |
| 2026-05-01 14:00 | 52.14931 | -58.64681 | 33244 ft | 530 kts | 49° |
| 2026-05-01 14:01 | 52.19744 | -58.55569 | 33247 ft | 531 kts | 50° |
| 2026-05-01 14:01 | 52.24571 | -58.46399 | 33247 ft | 531 kts | 50° |
| 2026-05-01 14:02 | 52.29382 | -58.37227 | 33249 ft | 532 kts | 50° |
| 2026-05-01 14:02 | 52.34154 | -58.28094 | 33243 ft | 532 kts | 50° |
| 2026-05-01 14:03 | 52.38959 | -58.18865 | 33245 ft | 532 kts | 50° |
| 2026-05-01 14:03 | 52.43759 | -58.09613 | 33252 ft | 532 kts | 50° |
| 2026-05-01 14:04 | 52.48523 | -58.00395 | 33245 ft | 532 kts | 51° |
| 2026-05-01 14:04 | 52.52498 | -57.92678 | 33246 ft | 532 kts | 51° |
| 2026-05-01 14:05 | 52.58078 | -57.81805 | 33254 ft | 532 kts | 51° |
| 2026-05-01 14:05 | 52.62806 | -57.72555 | 33260 ft | 532 kts | 51° |
| 2026-05-01 14:06 | 52.67573 | -57.63197 | 33256 ft | 531 kts | 51° |
| 2026-05-01 14:06 | 52.72319 | -57.53843 | 33259 ft | 531 kts | 52° |
| 2026-05-01 14:07 | 52.77031 | -57.44521 | 33266 ft | 531 kts | 52° |
| 2026-05-01 14:08 | 52.84099 | -57.30473 | 33272 ft | 530 kts | 52° |
| 2026-05-01 14:08 | 52.88785 | -57.21114 | 33268 ft | 529 kts | 53° |
| 2026-05-01 14:09 | 52.93463 | -57.11736 | 33274 ft | 529 kts | 53° |
| 2026-05-01 14:09 | 52.98152 | -57.02301 | 33273 ft | 528 kts | 53° |
| 2026-05-01 14:10 | 53.02821 | -56.92871 | 33277 ft | 528 kts | 53° |
| 2026-05-01 14:10 | 53.07470 | -56.83451 | 33268 ft | 528 kts | 54° |
| 2026-05-01 14:11 | 53.11656 | -56.73562 | 33275 ft | 522 kts | 64° |
| 2026-05-01 14:11 | 53.16730 | -56.57535 | 33278 ft | 521 kts | 66° |
| 2026-05-01 14:12 | 53.20084 | -56.46826 | 33287 ft | 521 kts | 66° |
| 2026-05-01 14:12 | 53.23450 | -56.36172 | 33279 ft | 521 kts | 66° |
| 2026-05-01 14:13 | 53.26267 | -56.27267 | 33292 ft | 521 kts | 66° |
| 2026-05-01 14:13 | 53.30229 | -56.14702 | 33298 ft | 521 kts | 66° |
| 2026-05-01 14:14 | 53.33583 | -56.04001 | 33301 ft | 521 kts | 66° |
| 2026-05-01 14:14 | 53.36937 | -55.93251 | 33304 ft | 520 kts | 66° |
| 2026-05-01 14:15 | 53.40272 | -55.82508 | 33310 ft | 520 kts | 66° |
| 2026-05-01 14:15 | 53.43586 | -55.71788 | 33315 ft | 520 kts | 66° |
| 2026-05-01 14:16 | 53.46907 | -55.60999 | 33321 ft | 519 kts | 66° |
| 2026-05-01 14:16 | 53.50209 | -55.50220 | 33326 ft | 519 kts | 66° |
| 2026-05-01 14:17 | 53.53484 | -55.39483 | 33330 ft | 519 kts | 66° |
| 2026-05-01 14:17 | 53.56772 | -55.28651 | 33328 ft | 519 kts | 66° |
| 2026-05-01 14:18 | 53.60047 | -55.17817 | 33334 ft | 519 kts | 66° |
| 2026-05-01 14:18 | 53.62764 | -55.08792 | 33337 ft | 519 kts | 66° |
| 2026-05-01 14:19 | 53.66553 | -54.96146 | 33349 ft | 519 kts | 66° |
| 2026-05-01 14:19 | 53.69788 | -54.85298 | 33352 ft | 519 kts | 66° |
| 2026-05-01 14:20 | 53.74643 | -54.68920 | 33350 ft | 520 kts | 66° |
| 2026-05-01 14:21 | 53.77868 | -54.57977 | 33348 ft | 520 kts | 66° |
| 2026-05-01 14:21 | 53.81062 | -54.47091 | 33355 ft | 520 kts | 66° |
| 2026-05-01 14:22 | 53.85879 | -54.30580 | 33362 ft | 520 kts | 66° |
| 2026-05-01 14:22 | 53.89067 | -54.19586 | 33368 ft | 520 kts | 66° |
| 2026-05-01 14:23 | 53.91709 | -54.10434 | 33365 ft | 520 kts | 66° |
| 2026-05-01 14:23 | 53.95396 | -53.97605 | 33366 ft | 520 kts | 66° |
| 2026-05-01 14:24 | 53.98558 | -53.86548 | 33371 ft | 521 kts | 66° |
| 2026-05-01 14:24 | 54.01714 | -53.75458 | 33372 ft | 521 kts | 66° |
| 2026-05-01 14:25 | 54.04867 | -53.64326 | 33379 ft | 522 kts | 66° |
| 2026-05-01 14:25 | 54.08006 | -53.53193 | 33381 ft | 522 kts | 66° |
| 2026-05-01 14:26 | 54.12173 | -53.38327 | 33387 ft | 522 kts | 66° |
| 2026-05-01 14:27 | 54.15797 | -53.25321 | 33389 ft | 522 kts | 67° |
| 2026-05-01 14:27 | 54.18397 | -53.15943 | 33389 ft | 522 kts | 67° |
| 2026-05-01 14:28 | 54.23039 | -52.99109 | 33398 ft | 522 kts | 67° |
| 2026-05-01 14:28 | 54.26101 | -52.87935 | 33390 ft | 522 kts | 67° |
| 2026-05-01 14:29 | 54.29171 | -52.76678 | 33398 ft | 522 kts | 67° |
| 2026-05-01 14:30 | 54.35283 | -52.54101 | 33394 ft | 522 kts | 67° |
| 2026-05-01 14:31 | 54.39838 | -52.37127 | 33407 ft | 522 kts | 67° |
| 2026-05-01 14:31 | 54.42866 | -52.25774 | 33405 ft | 522 kts | 67° |
| 2026-05-01 14:32 | 54.45881 | -52.14414 | 33416 ft | 522 kts | 67° |
| 2026-05-01 14:32 | 54.48883 | -52.03045 | 33407 ft | 522 kts | 67° |
| 2026-05-01 14:33 | 54.51877 | -51.91649 | 33416 ft | 522 kts | 68° |
| 2026-05-01 14:33 | 54.54839 | -51.80318 | 33417 ft | 522 kts | 68° |
| 2026-05-01 14:34 | 54.57807 | -51.68905 | 33418 ft | 522 kts | 68° |
| 2026-05-01 14:34 | 54.60767 | -51.57469 | 33415 ft | 522 kts | 68° |
| 2026-05-01 14:35 | 54.63715 | -51.46017 | 33422 ft | 522 kts | 68° |
| 2026-05-01 14:35 | 54.66654 | -51.34542 | 33423 ft | 522 kts | 68° |
| 2026-05-01 14:36 | 54.69579 | -51.23062 | 33423 ft | 522 kts | 68° |
| 2026-05-01 14:36 | 54.72496 | -51.11558 | 33429 ft | 522 kts | 68° |
| 2026-05-01 14:37 | 54.75400 | -51.00041 | 33427 ft | 522 kts | 68° |
| 2026-05-01 14:37 | 54.78297 | -50.88495 | 33443 ft | 522 kts | 68° |
| 2026-05-01 14:38 | 54.81170 | -50.76986 | 33427 ft | 522 kts | 68° |
| 2026-05-01 14:38 | 54.84053 | -50.65371 | 33425 ft | 522 kts | 68° |
| 2026-05-01 14:39 | 54.86903 | -50.53833 | 33426 ft | 522 kts | 68° |
| 2026-05-01 14:39 | 54.89760 | -50.42203 | 33443 ft | 522 kts | 68° |
| 2026-05-01 14:40 | 54.92588 | -50.30630 | 33444 ft | 521 kts | 68° |
| 2026-05-01 14:40 | 54.95404 | -50.19044 | 33439 ft | 521 kts | 68° |
| 2026-05-01 14:41 | 54.98218 | -50.07412 | 33440 ft | 521 kts | 69° |
| 2026-05-01 14:41 | 55.00733 | -49.95640 | 33439 ft | 519 kts | 76° |
| 2026-05-01 14:42 | 55.02475 | -49.83430 | 33449 ft | 519 kts | 78° |
| 2026-05-01 14:42 | 55.04140 | -49.71216 | 33532 ft | 522 kts | 78° |
| 2026-05-01 14:42 | 55.04986 | -49.65067 | 33802 ft | 520 kts | 78° |
| 2026-05-01 14:43 | 55.05830 | -49.58985 | 34130 ft | 518 kts | 78° |
| 2026-05-01 14:43 | 55.06684 | -49.52865 | 34374 ft | 516 kts | 78° |
| 2026-05-01 14:43 | 55.07527 | -49.46827 | 34412 ft | 516 kts | 78° |
| 2026-05-01 14:44 | 55.09219 | -49.34660 | 34438 ft | 513 kts | 78° |
| 2026-05-01 14:44 | 55.11714 | -49.16526 | 34453 ft | 512 kts | 78° |
| 2026-05-01 14:45 | 55.14173 | -48.98400 | 34450 ft | 511 kts | 78° |
| 2026-05-01 14:46 | 55.15798 | -48.86301 | 34450 ft | 512 kts | 78° |
| 2026-05-01 14:46 | 55.18210 | -48.68163 | 34456 ft | 512 kts | 78° |
| 2026-05-01 14:47 | 55.19812 | -48.55986 | 34468 ft | 512 kts | 78° |
| 2026-05-01 14:48 | 55.22184 | -48.37769 | 34455 ft | 512 kts | 78° |
| 2026-05-01 14:48 | 55.24539 | -48.19457 | 34454 ft | 512 kts | 78° |
| 2026-05-01 14:49 | 55.27624 | -47.95100 | 34460 ft | 512 kts | 79° |
| 2026-05-01 14:50 | 55.30648 | -47.70799 | 34466 ft | 511 kts | 79° |
| 2026-05-01 14:51 | 55.32891 | -47.52501 | 34474 ft | 511 kts | 79° |
| 2026-05-01 14:52 | 55.35107 | -47.34173 | 34469 ft | 511 kts | 79° |
| 2026-05-01 14:53 | 55.37297 | -47.15819 | 34474 ft | 511 kts | 79° |
| 2026-05-01 14:53 | 55.38739 | -47.03592 | 34473 ft | 511 kts | 79° |
| 2026-05-01 14:54 | 55.40171 | -46.91343 | 34476 ft | 511 kts | 79° |
| 2026-05-01 14:54 | 55.41589 | -46.79094 | 34476 ft | 511 kts | 79° |
| 2026-05-01 14:55 | 55.42995 | -46.66829 | 34478 ft | 511 kts | 79° |
| 2026-05-01 14:55 | 55.44389 | -46.54560 | 34476 ft | 511 kts | 80° |
| 2026-05-01 14:56 | 55.45772 | -46.42273 | 34476 ft | 511 kts | 80° |
| 2026-05-01 14:56 | 55.47144 | -46.29960 | 34477 ft | 511 kts | 80° |
| 2026-05-01 14:57 | 55.48501 | -46.17669 | 34476 ft | 512 kts | 80° |
| 2026-05-01 14:57 | 55.50516 | -45.99190 | 34480 ft | 512 kts | 80° |
| 2026-05-01 14:58 | 55.51839 | -45.86898 | 34475 ft | 512 kts | 80° |
| 2026-05-01 14:58 | 55.53159 | -45.74517 | 34479 ft | 512 kts | 80° |
| 2026-05-01 14:59 | 55.54460 | -45.62190 | 34482 ft | 513 kts | 81° |
| 2026-05-01 14:59 | 55.55756 | -45.49783 | 34482 ft | 513 kts | 81° |
| 2026-05-01 15:00 | 55.57674 | -45.31177 | 34479 ft | 513 kts | 81° |
| 2026-05-01 15:01 | 55.58935 | -45.18784 | 34480 ft | 514 kts | 81° |
| 2026-05-01 15:01 | 55.60183 | -45.06394 | 34477 ft | 514 kts | 81° |
| 2026-05-01 15:02 | 55.61427 | -44.93908 | 34479 ft | 514 kts | 81° |
| 2026-05-01 15:02 | 55.62656 | -44.81427 | 34478 ft | 515 kts | 81° |
| 2026-05-01 15:03 | 55.63867 | -44.69001 | 34477 ft | 516 kts | 81° |
| 2026-05-01 15:03 | 55.65075 | -44.56474 | 34479 ft | 516 kts | 81° |
| 2026-05-01 15:04 | 55.66271 | -44.43921 | 34476 ft | 517 kts | 82° |
| 2026-05-01 15:04 | 55.67452 | -44.31395 | 34479 ft | 517 kts | 82° |
| 2026-05-01 15:05 | 55.68626 | -44.18791 | 34481 ft | 518 kts | 82° |
| 2026-05-01 15:05 | 55.69791 | -44.06135 | 34483 ft | 519 kts | 82° |
| 2026-05-01 15:06 | 55.70940 | -43.93504 | 34472 ft | 519 kts | 82° |
| 2026-05-01 15:06 | 55.72072 | -43.80916 | 34483 ft | 520 kts | 82° |
| 2026-05-01 15:07 | 55.73196 | -43.68267 | 34476 ft | 520 kts | 82° |
| 2026-05-01 15:07 | 55.74312 | -43.55551 | 34476 ft | 520 kts | 82° |
| 2026-05-01 15:08 | 55.75408 | -43.42907 | 34479 ft | 521 kts | 82° |
| 2026-05-01 15:08 | 55.76501 | -43.30135 | 34476 ft | 522 kts | 83° |
| 2026-05-01 15:09 | 55.77574 | -43.17439 | 34469 ft | 522 kts | 83° |
| 2026-05-01 15:09 | 55.78642 | -43.04637 | 34468 ft | 523 kts | 83° |
| 2026-05-01 15:10 | 55.79695 | -42.91846 | 34472 ft | 524 kts | 83° |
| 2026-05-01 15:10 | 55.81249 | -42.72664 | 34475 ft | 525 kts | 83° |
| 2026-05-01 15:11 | 55.82780 | -42.53377 | 34470 ft | 526 kts | 83° |
| 2026-05-01 15:12 | 55.83785 | -42.40486 | 34468 ft | 526 kts | 83° |
| 2026-05-01 15:12 | 55.85266 | -42.21168 | 34462 ft | 527 kts | 83° |
| 2026-05-01 15:14 | 55.87679 | -41.88782 | 34463 ft | 528 kts | 83° |
| 2026-05-01 15:14 | 55.89087 | -41.69310 | 34465 ft | 529 kts | 84° |
| 2026-05-01 15:15 | 55.90914 | -41.43359 | 34464 ft | 530 kts | 84° |
| 2026-05-01 15:16 | 55.92700 | -41.17193 | 34462 ft | 531 kts | 84° |
| 2026-05-01 15:18 | 55.94850 | -40.84519 | 34457 ft | 532 kts | 84° |
| 2026-05-01 15:19 | 55.96514 | -40.58251 | 34460 ft | 534 kts | 84° |
| 2026-05-01 15:19 | 55.97730 | -40.38452 | 34451 ft | 535 kts | 84° |
| 2026-05-01 15:20 | 55.98781 | -40.20904 | 34450 ft | 535 kts | 84° |
| 2026-05-01 15:21 | 55.99686 | -40.05468 | 34452 ft | 536 kts | 84° |
| 2026-05-01 15:21 | 56.00293 | -39.94358 | 34452 ft | 536 kts | 85° |
| 2026-05-01 15:22 | 56.01052 | -39.74481 | 34445 ft | 537 kts | 87° |
| 2026-05-01 15:22 | 56.01519 | -39.61129 | 34437 ft | 537 kts | 86° |
| 2026-05-01 15:23 | 56.01998 | -39.47816 | 34441 ft | 538 kts | 86° |
| 2026-05-01 15:23 | 56.02475 | -39.34508 | 34442 ft | 538 kts | 86° |
| 2026-05-01 15:24 | 56.02864 | -39.23414 | 34445 ft | 539 kts | 86° |
| 2026-05-01 15:24 | 56.03390 | -39.07840 | 34440 ft | 539 kts | 86° |
| 2026-05-01 15:25 | 56.03826 | -38.94408 | 34440 ft | 540 kts | 87° |
| 2026-05-01 15:25 | 56.04246 | -38.81028 | 34433 ft | 541 kts | 87° |
| 2026-05-01 15:26 | 56.04654 | -38.67586 | 34440 ft | 541 kts | 87° |
| 2026-05-01 15:26 | 56.05047 | -38.54112 | 34425 ft | 542 kts | 87° |
| 2026-05-01 15:27 | 56.05426 | -38.40657 | 34427 ft | 542 kts | 87° |
| 2026-05-01 15:28 | 56.05966 | -38.20446 | 34426 ft | 543 kts | 87° |
| 2026-05-01 15:28 | 56.06307 | -38.07010 | 34428 ft | 543 kts | 87° |
| 2026-05-01 15:29 | 56.06795 | -37.86732 | 34428 ft | 544 kts | 87° |
| 2026-05-01 15:30 | 56.07346 | -37.61891 | 34426 ft | 545 kts | 88° |
| 2026-05-01 15:31 | 56.08180 | -37.18963 | 34418 ft | 547 kts | 88° |
| 2026-05-01 15:32 | 56.08632 | -36.91747 | 34409 ft | 548 kts | 88° |
| 2026-05-01 15:34 | 56.09200 | -36.50717 | 34415 ft | 550 kts | 88° |